Time;durP1;ratioP1;P1;durP2;ratioP2;P2;SDS_P1;SDS_P2;PMS_P1;PMS_P2;Temp;Humidity;BMP_temperature;BMP_pressure;BME280_temperature;BME280_humidity;BME280_pressure;Samples;Min_cycle;Max_cycle;Signal;HPM_P1;HPM_P2
2021/10/05 00:00:59;;;;;;;7.93;5.25;;;9.30;96.30;;;;;;4957632;29;20027;-86
2021/10/05 00:03:25;;;;;;;8.90;4.60;;;9.30;96.30;;;;;;4957768;28;20208;-86
2021/10/05 00:05:52;;;;;;;7.10;5.00;;;9.30;96.20;;;;;;4957986;29;20027;-85
2021/10/05 00:08:17;;;;;;;6.90;4.68;;;9.20;96.40;;;;;;4940962;29;20039;-86
2021/10/05 00:10:43;;;;;;;8.70;5.18;;;9.20;96.50;;;;;;4957637;28;20467;-86
2021/10/05 00:13:09;;;;;;;6.03;3.95;;;9.20;96.30;;;;;;4957388;29;20442;-86
2021/10/05 00:15:35;;;;;;;7.10;4.20;;;9.20;96.30;;;;;;4940191;29;20031;-86
2021/10/05 00:18:01;;;;;;;6.88;4.18;;;9.20;96.20;;;;;;4957461;29;20050;-86
2021/10/05 00:20:26;;;;;;;9.85;5.18;;;9.10;96.30;;;;;;4940354;29;20038;-86
2021/10/05 00:22:52;;;;;;;7.63;4.75;;;9.10;96.40;;;;;;4957581;28;20055;-85
2021/10/05 00:25:18;;;;;;;7.88;4.90;;;9.10;96.50;;;;;;4957379;28;20043;-86
2021/10/05 00:27:44;;;;;;;6.03;3.70;;;9.10;96.50;;;;;;4940147;29;20031;-86
2021/10/05 00:30:10;;;;;;;9.82;4.93;;;9.00;96.40;;;;;;4940036;29;20038;-85
2021/10/05 00:32:35;;;;;;;9.75;5.38;;;9.00;96.60;;;;;;4939987;29;20024;-86
2021/10/05 00:35:02;;;;;;;7.35;4.80;;;9.00;96.60;;;;;;4940574;29;20451;-86
2021/10/05 00:37:27;;;;;;;7.50;5.50;;;9.00;96.80;;;;;;4957196;29;20046;-86
2021/10/05 00:39:53;;;;;;;7.88;5.35;;;9.00;97.00;;;;;;4939963;29;20027;-85
2021/10/05 00:42:19;;;;;;;10.60;5.47;;;8.90;97.00;;;;;;4957118;28;20150;-86
2021/10/05 00:44:44;;;;;;;5.80;4.60;;;8.90;97.20;;;;;;4957131;29;20447;-85
2021/10/05 00:47:15;;;;;;;9.52;4.95;;;8.90;97.30;;;;;;4956932;28;20442;-86
2021/10/05 00:49:43;;;;;;;7.05;4.75;;;8.90;97.20;;;;;;4956900;29;20031;-86
2021/10/05 00:52:10;;;;;;;8.52;5.00;;;8.90;97.40;;;;;;4939661;29;20083;-86
2021/10/05 00:54:38;;;;;;;8.38;4.85;;;8.80;97.40;;;;;;4939615;29;20032;-86
2021/10/05 00:57:05;;;;;;;8.82;5.30;;;8.80;97.30;;;;;;4939326;29;20038;-85
2021/10/05 00:59:33;;;;;;;7.55;4.72;;;8.80;97.40;;;;;;4939272;29;20486;-86
2021/10/05 01:01:59;;;;;;;9.88;4.57;;;8.70;97.30;;;;;;4956626;29;20027;-86
2021/10/05 01:04:25;;;;;;;9.02;5.45;;;8.70;97.30;;;;;;4956421;29;20419;-86
2021/10/05 01:07:03;;;;;;;8.15;4.38;;;8.70;97.40;;;;;;4939281;29;20088;-85
2021/10/05 01:09:29;;;;;;;12.95;6.20;;;8.70;97.50;;;;;;4956592;29;20031;-86
2021/10/05 01:11:55;;;;;;;9.80;5.00;;;8.70;97.60;;;;;;4939319;29;20031;-85
2021/10/05 01:14:22;;;;;;;9.35;4.88;;;8.60;97.70;;;;;;4956191;29;20527;-86
2021/10/05 01:16:54;;;;;;;7.97;4.80;;;8.60;97.50;;;;;;4956456;28;20031;-86
2021/10/05 01:19:20;;;;;;;6.80;5.05;;;8.60;97.50;;;;;;4956519;28;20031;-86
2021/10/05 01:21:45;;;;;;;10.38;5.90;;;8.60;97.60;;;;;;4939043;29;20027;-86
2021/10/05 01:24:13;;;;;;;9.10;5.97;;;8.60;97.80;;;;;;4956217;28;20062;-86
2021/10/05 01:26:40;;;;;;;8.52;5.80;;;8.60;97.80;;;;;;4956723;28;20035;-86
2021/10/05 01:29:07;;;;;;;10.20;6.70;;;8.50;98.00;;;;;;4938853;29;20052;-86
2021/10/05 01:31:37;;;;;;;11.00;5.63;;;8.60;98.30;;;;;;4938664;28;20032;-86
2021/10/05 01:34:03;;;;;;;13.90;5.90;;;8.50;98.10;;;;;;4955856;29;20034;-86
2021/10/05 01:36:28;;;;;;;10.68;5.47;;;8.50;98.20;;;;;;4938934;29;20094;-86
2021/10/05 01:38:54;;;;;;;9.95;5.70;;;8.50;98.20;;;;;;4955919;28;20036;-86
2021/10/05 01:41:20;;;;;;;10.77;5.47;;;8.50;98.30;;;;;;4955730;28;20031;-86
2021/10/05 01:43:46;;;;;;;10.50;5.47;;;8.50;98.20;;;;;;4955725;28;20114;-86
2021/10/05 01:46:13;;;;;;;11.50;5.43;;;8.50;98.20;;;;;;4956032;29;20027;-86
2021/10/05 01:48:40;;;;;;;11.98;6.18;;;8.40;98.30;;;;;;4938472;29;20035;-86
2021/10/05 01:51:06;;;;;;;9.20;5.85;;;8.40;98.70;;;;;;4945153;29;20031;-86
2021/10/05 01:53:32;;;;;;;8.45;5.68;;;8.40;98.70;;;;;;4967617;29;20107;-86
2021/10/05 01:55:57;;;;;;;9.85;5.63;;;8.40;98.50;;;;;;4964310;28;20031;-86
2021/10/05 01:58:23;;;;;;;8.93;5.82;;;8.40;98.50;;;;;;4941697;29;20066;-85
2021/10/05 02:00:49;;;;;;;9.25;5.82;;;8.30;98.60;;;;;;4955447;28;20024;-86
2021/10/05 02:03:15;;;;;;;12.10;6.15;;;8.30;98.80;;;;;;4955464;28;20028;-86
2021/10/05 02:05:41;;;;;;;8.13;4.60;;;8.30;98.80;;;;;;4955435;28;20027;-86
2021/10/05 02:08:10;;;;;;;7.82;4.28;;;8.30;98.70;;;;;;4955485;28;20027;-86
2021/10/05 02:10:36;;;;;;;11.10;5.78;;;8.30;98.60;;;;;;4955666;28;20027;-86
2021/10/05 02:13:03;;;;;;;9.02;5.00;;;8.30;98.70;;;;;;4938238;29;20078;-86
2021/10/05 02:15:28;;;;;;;7.72;4.35;;;8.20;98.80;;;;;;4938307;29;20501;-86
2021/10/05 02:17:54;;;;;;;9.68;4.55;;;8.20;98.80;;;;;;4955714;29;20028;-86
2021/10/05 02:20:20;;;;;;;9.93;5.22;;;8.20;98.80;;;;;;4938369;29;20023;-86
2021/10/05 02:22:47;;;;;;;8.73;4.60;;;8.20;98.80;;;;;;4955367;29;20467;-86
2021/10/05 02:25:13;;;;;;;6.63;4.00;;;8.10;98.80;;;;;;4938206;29;20041;-86
2021/10/05 02:27:39;;;;;;;6.72;4.32;;;8.20;98.80;;;;;;4938322;29;20118;-86
2021/10/05 02:30:05;;;;;;;8.15;5.05;;;8.10;98.90;;;;;;4955287;29;20091;-86
2021/10/05 02:32:31;;;;;;;8.70;5.35;;;8.10;99.10;;;;;;4938054;29;20032;-85
2021/10/05 02:34:58;;;;;;;8.93;4.63;;;8.10;98.90;;;;;;4938126;29;20117;-86
2021/10/05 02:37:29;;;;;;;9.43;4.85;;;8.10;99.00;;;;;;4938055;29;20031;-86
2021/10/05 02:39:56;;;;;;;11.43;5.82;;;8.10;99.30;;;;;;4938168;29;20031;-86
2021/10/05 02:42:21;;;;;;;8.98;5.57;;;8.10;99.20;;;;;;4955122;28;20055;-86
2021/10/05 02:44:47;;;;;;;9.68;5.03;;;8.10;99.30;;;;;;4957901;28;20046;-86
2021/10/05 02:47:13;;;;;;;10.65;4.93;;;8.10;99.50;;;;;;4958938;28;20042;-86
2021/10/05 02:49:43;;;;;;;9.55;5.18;;;8.10;99.40;;;;;;4941729;29;20050;-86
2021/10/05 02:52:10;;;;;;;9.60;6.05;;;8.00;99.50;;;;;;4941636;28;20042;-86
2021/10/05 02:54:35;;;;;;;8.45;5.00;;;8.00;99.60;;;;;;4942148;29;20039;-86
2021/10/05 02:57:01;;;;;;;8.38;5.30;;;8.10;99.50;;;;;;4958886;29;20119;-86
2021/10/05 02:59:28;;;;;;;11.80;5.00;;;8.00;99.70;;;;;;4941854;29;20054;-85
2021/10/05 03:01:54;;;;;;;11.55;6.80;;;8.10;99.70;;;;;;4958837;28;20464;-86
2021/10/05 03:04:20;;;;;;;9.30;6.20;;;8.00;99.60;;;;;;4958854;28;20111;-86
2021/10/05 03:06:45;;;;;;;13.15;7.03;;;8.00;99.80;;;;;;4941604;29;20471;-86
2021/10/05 03:09:11;;;;;;;12.75;6.35;;;8.10;99.90;;;;;;4958783;28;20082;-86
2021/10/05 03:11:37;;;;;;;7.68;5.22;;;8.00;99.80;;;;;;4941448;29;20027;-86
2021/10/05 03:14:03;;;;;;;9.18;5.85;;;8.00;99.90;;;;;;4958532;29;20027;-86
2021/10/05 03:16:28;;;;;;;8.32;5.22;;;8.00;99.90;;;;;;4958717;29;20055;-86
2021/10/05 03:18:54;;;;;;;9.85;5.72;;;8.00;99.90;;;;;;4958248;29;20055;-86
2021/10/05 03:21:20;;;;;;;8.50;5.35;;;8.00;99.90;;;;;;4958789;28;20027;-86
2021/10/05 03:23:46;;;;;;;10.52;5.25;;;8.00;99.90;;;;;;4958405;29;20034;-86
2021/10/05 03:26:12;;;;;;;11.25;5.95;;;8.00;99.90;;;;;;4940907;29;20118;-86
2021/10/05 03:28:38;;;;;;;9.88;6.65;;;8.00;99.90;;;;;;4958414;28;20086;-86
2021/10/05 03:31:03;;;;;;;8.40;5.35;;;8.00;99.90;;;;;;4940946;29;20501;-85
2021/10/05 03:33:29;;;;;;;11.05;6.78;;;8.00;99.90;;;;;;4958011;29;20118;-86
2021/10/05 03:35:55;;;;;;;9.15;4.75;;;8.00;99.90;;;;;;4940732;29;20035;-86
2021/10/05 03:38:22;;;;;;;12.07;5.72;;;8.00;99.90;;;;;;4958185;29;20028;-86
2021/10/05 03:40:49;;;;;;;9.38;4.78;;;8.00;99.90;;;;;;4940979;29;20027;-86
2021/10/05 03:43:15;;;;;;;8.52;5.15;;;8.00;99.90;;;;;;4940745;29;20376;-86
2021/10/05 03:45:41;;;;;;;9.40;5.55;;;8.00;99.90;;;;;;4940721;29;20390;-86
2021/10/05 03:48:06;;;;;;;8.75;5.60;;;8.00;99.90;;;;;;4940539;29;20035;-86
2021/10/05 03:50:32;;;;;;;8.07;4.38;;;8.00;99.90;;;;;;4940279;28;20034;-86
2021/10/05 03:52:58;;;;;;;13.52;4.90;;;8.00;99.90;;;;;;4940615;29;20082;-86
2021/10/05 03:55:24;;;;;;;10.63;5.57;;;7.90;99.90;;;;;;4939641;29;20122;-86
2021/10/05 03:57:49;;;;;;;16.33;6.47;;;8.00;99.90;;;;;;4940591;29;20027;-85
2021/10/05 04:00:15;;;;;;;6.13;3.78;;;8.00;99.90;;;;;;4957834;29;20031;-86
2021/10/05 04:02:41;;;;;;;8.90;5.05;;;8.00;99.90;;;;;;4940561;29;20031;-85
2021/10/05 04:05:08;;;;;;;8.40;5.47;;;8.00;99.90;;;;;;4957367;28;20039;-86
2021/10/05 04:07:33;;;;;;;11.70;5.75;;;8.00;99.90;;;;;;4940631;29;20027;-86
2021/10/05 04:09:59;;;;;;;8.50;5.35;;;8.00;99.90;;;;;;4957640;28;20501;-86
2021/10/05 04:12:25;;;;;;;8.32;5.35;;;8.00;99.90;;;;;;4957886;29;20035;-86
2021/10/05 04:14:51;;;;;;;8.18;4.68;;;8.00;99.90;;;;;;4940175;29;20474;-85
2021/10/05 04:17:17;;;;;;;11.00;6.35;;;8.00;99.90;;;;;;4957269;29;20562;-85
2021/10/05 04:19:44;;;;;;;9.43;5.32;;;8.00;99.90;;;;;;4939756;29;20467;-84
2021/10/05 04:22:09;;;;;;;8.85;5.18;;;8.00;99.90;;;;;;4940038;29;20024;-85
2021/10/05 04:24:35;;;;;;;10.48;6.00;;;8.10;99.90;;;;;;4940211;29;20104;-85
2021/10/05 04:27:04;;;;;;;9.13;6.47;;;8.10;99.90;;;;;;4957475;28;20430;-85
2021/10/05 04:29:29;;;;;;;6.10;4.38;;;8.10;99.90;;;;;;4939973;29;20439;-84
2021/10/05 04:31:55;;;;;;;9.27;5.55;;;8.10;99.90;;;;;;4957354;28;20027;-85
2021/10/05 04:34:21;;;;;;;9.43;6.25;;;8.20;99.90;;;;;;4956665;29;20087;-85
2021/10/05 04:36:46;;;;;;;10.95;6.57;;;8.20;99.90;;;;;;4939757;29;20083;-84
2021/10/05 04:39:12;;;;;;;7.63;4.88;;;8.20;99.90;;;;;;4939748;29;20027;-85
2021/10/05 04:41:38;;;;;;;11.40;5.45;;;8.30;99.90;;;;;;4956936;29;20027;-85
2021/10/05 04:44:03;;;;;;;8.63;5.43;;;8.40;99.90;;;;;;4957650;28;20051;-85
2021/10/05 04:46:29;;;;;;;11.20;6.53;;;8.40;99.90;;;;;;4939462;29;20043;-85
2021/10/05 04:48:55;;;;;;;8.57;5.32;;;8.50;99.90;;;;;;4956643;28;20103;-85
2021/10/05 04:51:21;;;;;;;8.85;5.68;;;8.50;99.90;;;;;;4939090;29;20061;-85
2021/10/05 04:53:46;;;;;;;10.95;5.28;;;8.60;99.90;;;;;;4956759;29;20035;-85
2021/10/05 04:56:12;;;;;;;11.60;6.75;;;8.60;99.90;;;;;;4956366;28;20027;-86
2021/10/05 04:58:37;;;;;;;9.35;5.53;;;8.70;99.90;;;;;;4938935;29;20038;-85
2021/10/05 05:01:03;;;;;;;9.20;5.00;;;8.80;99.90;;;;;;4938798;29;20144;-85
2021/10/05 05:03:29;;;;;;;10.68;5.88;;;8.80;99.90;;;;;;4938656;29;20027;-86
2021/10/05 05:05:54;;;;;;;10.63;4.97;;;8.90;99.90;;;;;;4938997;29;20031;-86
2021/10/05 05:08:20;;;;;;;7.88;4.93;;;9.00;99.90;;;;;;4956452;28;20058;-86
2021/10/05 05:10:46;;;;;;;8.25;5.55;;;9.00;99.90;;;;;;4956254;28;20027;-86
2021/10/05 05:13:11;;;;;;;9.63;5.50;;;9.10;99.90;;;;;;4938932;29;20031;-86
2021/10/05 05:15:38;;;;;;;10.35;5.32;;;9.10;99.90;;;;;;4955782;29;20368;-86
2021/10/05 05:18:03;;;;;;;12.43;6.95;;;9.20;99.90;;;;;;4955551;28;20027;-86
2021/10/05 05:20:29;;;;;;;9.85;5.75;;;9.30;99.90;;;;;;4956102;29;20038;-85
2021/10/05 05:22:55;;;;;;;10.95;5.80;;;9.30;99.90;;;;;;4955898;29;20027;-86
2021/10/05 05:25:22;;;;;;;9.40;5.63;;;9.40;99.80;;;;;;4938700;29;20031;-86
2021/10/05 05:27:48;;;;;;;11.95;6.63;;;9.40;99.70;;;;;;4938658;29;20046;-85
2021/10/05 05:30:13;;;;;;;9.05;5.53;;;9.50;99.50;;;;;;4938072;29;20039;-85
2021/10/05 05:32:39;;;;;;;11.30;6.63;;;9.60;99.40;;;;;;4955475;28;20438;-86
2021/10/05 05:35:05;;;;;;;12.70;7.35;;;9.50;99.30;;;;;;4938381;29;20050;-86
2021/10/05 05:37:31;;;;;;;10.15;6.32;;;9.60;99.20;;;;;;4938275;29;20039;-86
2021/10/05 05:39:57;;;;;;;9.98;6.55;;;9.70;99.30;;;;;;4938220;29;20027;-86
2021/10/05 05:42:22;;;;;;;7.55;5.28;;;9.70;99.20;;;;;;4937862;28;20051;-85
2021/10/05 05:44:50;;;;;;;10.50;5.65;;;9.80;99.10;;;;;;4937731;29;20046;-85
2021/10/05 05:47:15;;;;;;;11.52;7.05;;;9.90;99.10;;;;;;4938107;28;20032;-86
2021/10/05 05:49:41;;;;;;;10.07;6.22;;;10.00;98.80;;;;;;4938156;29;20027;-86
2021/10/05 05:52:07;;;;;;;10.55;6.68;;;10.00;98.70;;;;;;4938342;29;20027;-86
2021/10/05 05:54:33;;;;;;;10.00;5.38;;;10.10;98.70;;;;;;4955398;29;20039;-85
2021/10/05 05:56:58;;;;;;;10.52;6.10;;;10.10;98.70;;;;;;4955344;28;20028;-86
2021/10/05 05:59:24;;;;;;;11.90;6.63;;;10.20;98.50;;;;;;4955222;28;20108;-86
2021/10/05 06:01:50;;;;;;;10.65;6.90;;;10.30;98.30;;;;;;4954943;28;20023;-86
2021/10/05 06:04:15;;;;;;;9.00;6.45;;;10.40;98.20;;;;;;4938222;29;20114;-86
2021/10/05 06:06:41;;;;;;;13.13;7.22;;;10.50;98.10;;;;;;4954841;28;20035;-85
2021/10/05 06:09:07;;;;;;;8.55;6.20;;;10.50;97.90;;;;;;4938110;29;20466;-86
2021/10/05 06:11:38;;;;;;;11.50;6.20;;;10.60;97.90;;;;;;4937248;29;20423;-85
2021/10/05 06:14:04;;;;;;;12.07;6.43;;;10.70;97.70;;;;;;4937666;29;20031;-86
2021/10/05 06:16:30;;;;;;;8.35;5.55;;;10.70;97.50;;;;;;4955298;29;20027;-86
2021/10/05 06:18:56;;;;;;;12.43;5.28;;;10.80;97.60;;;;;;4937307;29;20074;-86
2021/10/05 06:21:22;;;;;;;8.43;6.10;;;10.90;97.60;;;;;;4937719;29;20118;-86
2021/10/05 06:23:47;;;;;;;10.48;5.93;;;11.00;97.50;;;;;;4937471;29;20099;-85
2021/10/05 06:26:13;;;;;;;10.73;6.95;;;11.20;97.40;;;;;;4954034;29;20079;-85
2021/10/05 06:28:42;;;;;;;10.48;6.75;;;11.20;97.00;;;;;;4936928;29;20502;-86
2021/10/05 06:31:08;;;;;;;12.52;6.78;;;11.30;96.70;;;;;;4953753;28;20114;-86
2021/10/05 06:33:34;;;;;;;12.57;7.10;;;11.30;96.40;;;;;;4937124;29;20029;-86
2021/10/05 06:36:00;;;;;;;13.30;7.32;;;11.30;96.30;;;;;;4955068;29;20497;-86
2021/10/05 06:38:26;;;;;;;9.10;6.45;;;11.30;96.30;;;;;;4937960;29;20027;-86
2021/10/05 06:40:53;;;;;;;12.70;7.45;;;11.20;96.20;;;;;;4937917;29;20027;-87
2021/10/05 06:43:20;;;;;;;9.88;7.55;;;11.20;96.30;;;;;;4937091;29;20093;-87
2021/10/05 06:45:47;;;;;;;10.75;7.00;;;11.10;96.40;;;;;;4935652;29;20035;-87
2021/10/05 06:48:12;;;;;;;11.63;6.13;;;11.10;96.50;;;;;;4954003;29;20031;-86
2021/10/05 06:50:38;;;;;;;11.43;6.55;;;11.20;96.50;;;;;;4954146;28;20079;-88
2021/10/05 06:53:05;;;;;;;9.10;5.97;;;11.20;96.60;;;;;;4935463;29;20508;-87
2021/10/05 06:55:31;;;;;;;8.60;6.60;;;11.20;96.60;;;;;;4935177;29;20035;-87
2021/10/05 06:57:58;;;;;;;10.95;6.70;;;11.30;96.70;;;;;;4935255;29;20111;-87
2021/10/05 07:00:24;;;;;;;10.10;6.00;;;11.40;96.70;;;;;;4953053;28;20027;-87
2021/10/05 07:02:50;;;;;;;9.30;6.57;;;11.50;96.40;;;;;;4935769;29;20055;-87
2021/10/05 07:05:20;;;;;;;9.90;6.00;;;11.60;96.40;;;;;;4935424;29;20089;-87
2021/10/05 07:07:48;;;;;;;10.18;6.72;;;11.70;96.20;;;;;;4954441;28;20039;-86
2021/10/05 07:10:16;;;;;;;7.90;6.15;;;11.80;95.90;;;;;;4937587;29;20046;-86
2021/10/05 07:12:42;;;;;;;10.13;6.43;;;12.00;95.70;;;;;;4937249;28;20057;-86
2021/10/05 07:15:09;;;;;;;12.10;6.88;;;12.10;95.60;;;;;;4937294;29;20041;-86
2021/10/05 07:17:36;;;;;;;11.63;7.55;;;12.10;95.40;;;;;;4955120;29;20035;-86
2021/10/05 07:20:03;;;;;;;10.30;7.10;;;12.30;95.00;;;;;;4954731;28;20029;-86
2021/10/05 07:22:28;;;;;;;12.85;6.97;;;12.30;94.80;;;;;;4936659;29;20407;-85
2021/10/05 07:24:54;;;;;;;10.20;6.15;;;12.40;94.70;;;;;;4954217;28;20038;-86
2021/10/05 07:27:20;;;;;;;7.72;5.50;;;12.50;94.60;;;;;;4937670;29;20154;-86
2021/10/05 07:29:46;;;;;;;10.02;6.55;;;12.60;94.60;;;;;;4954494;28;20482;-85
2021/10/05 07:32:12;;;;;;;9.32;6.32;;;12.70;94.30;;;;;;4957112;28;20031;-85
2021/10/05 07:34:38;;;;;;;9.93;6.72;;;12.80;94.20;;;;;;4957570;29;20067;-85
2021/10/05 07:37:04;;;;;;;10.50;6.72;;;12.90;93.90;;;;;;4939817;29;20062;-86
2021/10/05 07:39:30;;;;;;;10.73;7.63;;;13.00;93.40;;;;;;4940299;29;20363;-85
2021/10/05 07:41:55;;;;;;;10.98;7.78;;;13.00;93.10;;;;;;4940549;29;20035;-84
2021/10/05 07:44:21;;;;;;;12.73;6.85;;;13.00;93.10;;;;;;4957804;28;20066;-86
2021/10/05 07:46:48;;;;;;;11.10;6.95;;;13.00;93.10;;;;;;4940192;29;20095;-85
2021/10/05 07:49:14;;;;;;;11.75;7.25;;;13.00;93.10;;;;;;4957085;29;20075;-86
2021/10/05 07:51:40;;;;;;;9.18;6.80;;;13.10;93.10;;;;;;4939977;29;20058;-86
2021/10/05 07:54:06;;;;;;;11.02;6.88;;;13.10;92.90;;;;;;4938621;28;20524;-86
2021/10/05 07:56:32;;;;;;;9.48;6.80;;;13.20;92.90;;;;;;4957123;29;20038;-86
2021/10/05 07:58:59;;;;;;;8.70;5.50;;;13.30;92.60;;;;;;4940373;29;20137;-85
2021/10/05 08:01:25;;;;;;;9.25;6.68;;;13.30;92.60;;;;;;4940380;29;20078;-86
2021/10/05 08:03:51;;;;;;;11.20;7.60;;;13.40;92.40;;;;;;4958412;28;20102;-85
2021/10/05 08:06:17;;;;;;;13.02;7.18;;;13.50;92.00;;;;;;4948974;29;20071;-85
2021/10/05 08:08:44;;;;;;;10.30;7.32;;;13.50;91.90;;;;;;4947799;28;20035;-85
2021/10/05 08:11:10;;;;;;;9.05;6.25;;;13.50;91.80;;;;;;4945121;28;20061;-85
2021/10/05 08:13:36;;;;;;;11.95;7.30;;;13.50;91.60;;;;;;4956943;28;20023;-86
2021/10/05 08:16:03;;;;;;;9.25;6.60;;;13.50;91.50;;;;;;4939612;29;20039;-85
2021/10/05 08:18:28;;;;;;;10.88;6.47;;;13.50;91.40;;;;;;4939445;29;20031;-84
2021/10/05 08:20:54;;;;;;;10.80;7.70;;;13.50;91.40;;;;;;4956738;28;20545;-85
2021/10/05 08:23:20;;;;;;;8.75;6.10;;;13.50;91.10;;;;;;4956479;29;20045;-86
2021/10/05 08:25:46;;;;;;;8.57;6.25;;;13.50;91.10;;;;;;4939350;29;20066;-85
2021/10/05 08:28:12;;;;;;;12.55;7.82;;;13.50;91.10;;;;;;4956840;29;20125;-87
2021/10/05 08:30:39;;;;;;;11.05;7.28;;;13.60;91.00;;;;;;4956571;28;20034;-85
2021/10/05 08:33:05;;;;;;;13.45;7.53;;;13.60;91.00;;;;;;4939628;29;20398;-86
2021/10/05 08:35:31;;;;;;;10.10;7.93;;;13.60;90.80;;;;;;4939891;29;20386;-86
2021/10/05 08:37:57;;;;;;;9.43;6.40;;;13.60;90.50;;;;;;4956721;28;20107;-86
2021/10/05 08:40:23;;;;;;;8.95;6.45;;;13.60;90.60;;;;;;4939383;29;20031;-86
2021/10/05 08:42:49;;;;;;;13.52;8.73;;;13.60;90.70;;;;;;4956255;28;20103;-86
2021/10/05 08:45:15;;;;;;;9.10;6.18;;;13.60;90.50;;;;;;4956543;28;20039;-86
2021/10/05 08:47:41;;;;;;;13.68;7.63;;;13.70;90.30;;;;;;4938708;29;20111;-86
2021/10/05 08:50:08;;;;;;;10.70;8.10;;;13.60;90.10;;;;;;4956667;28;20023;-86
2021/10/05 08:52:34;;;;;;;10.73;7.78;;;13.60;90.10;;;;;;4938625;29;20473;-86
2021/10/05 08:55:01;;;;;;;14.45;7.22;;;13.60;90.00;;;;;;4938577;29;20062;-86
2021/10/05 08:57:28;;;;;;;10.27;7.43;;;13.60;90.00;;;;;;4939124;29;20043;-86
2021/10/05 08:59:54;;;;;;;14.25;8.25;;;13.60;89.80;;;;;;4938852;29;20031;-86
2021/10/05 09:02:20;;;;;;;13.07;8.82;;;13.60;89.90;;;;;;4957463;29;20482;-86
2021/10/05 09:04:47;;;;;;;12.23;7.93;;;13.70;89.20;;;;;;4940162;29;20090;-85
2021/10/05 09:07:22;;;;;;;13.98;7.63;;;13.70;88.00;;;;;;4939091;29;20089;-85
2021/10/05 09:10:00;;;;;;;12.68;7.05;;;13.70;88.40;;;;;;4938415;29;20043;-86
2021/10/05 09:12:31;;;;;;;13.18;8.02;;;13.70;87.60;;;;;;4956167;29;20028;-85
2021/10/05 09:14:57;;;;;;;10.30;7.05;;;13.80;87.80;;;;;;4956058;29;20035;-87
2021/10/05 09:17:25;;;;;;;10.27;7.25;;;13.80;87.30;;;;;;4956109;28;20023;-85
2021/10/05 09:19:52;;;;;;;13.30;7.53;;;13.90;87.40;;;;;;4950315;29;20034;-85
2021/10/05 09:22:22;;;;;;;11.60;7.30;;;13.90;87.20;;;;;;4928283;29;20118;-86
2021/10/05 09:24:50;;;;;;;11.48;7.32;;;13.90;86.80;;;;;;4955308;28;20513;-85
2021/10/05 09:27:16;;;;;;;8.75;6.72;;;14.00;86.60;;;;;;4949395;28;20058;-86
2021/10/05 09:29:43;;;;;;;7.65;5.78;;;14.00;86.10;;;;;;4974716;28;20455;-85
2021/10/05 09:32:15;;;;;;;8.52;5.18;;;14.10;85.90;;;;;;4967817;28;20042;-86
2021/10/05 09:34:50;;;;;;;9.60;7.00;;;14.20;85.80;;;;;;4955464;29;20105;-85
2021/10/05 09:37:23;;;;;;;9.05;6.07;;;14.30;85.40;;;;;;4938529;29;20031;-86
2021/10/05 09:40:04;;;;;;;9.98;6.90;;;14.40;84.70;;;;;;4955644;28;20055;-86
2021/10/05 09:42:36;;;;;;;10.25;6.75;;;14.40;84.20;;;;;;4955374;28;20450;-87
2021/10/05 09:45:08;;;;;;;9.07;6.13;;;14.40;84.20;;;;;;4939279;29;20065;-86
2021/10/05 09:47:40;;;;;;;13.38;7.05;;;14.50;84.20;;;;;;4939352;29;20035;-87
2021/10/05 09:50:28;;;;;;;13.43;8.32;;;14.50;83.60;;;;;;4937989;29;20035;-86
2021/10/05 09:53:06;;;;;;;11.88;7.38;;;14.50;82.80;;;;;;4954712;28;20529;-86
2021/10/05 09:55:50;;;;;;;10.88;7.18;;;14.50;83.10;;;;;;4956046;29;20033;-86
2021/10/05 09:58:16;;;;;;;12.68;7.72;;;14.60;82.10;;;;;;4938122;29;20028;-86
2021/10/05 10:00:47;;;;;;;9.98;6.10;;;14.60;82.90;;;;;;4955381;29;20043;-86
2021/10/05 10:03:19;;;;;;;10.80;6.90;;;14.60;82.90;;;;;;4955538;28;20028;-87
2021/10/05 10:05:45;;;;;;;10.95;7.15;;;14.70;82.60;;;;;;4938495;29;20035;-86
2021/10/05 10:08:12;;;;;;;8.38;6.15;;;14.80;82.40;;;;;;4937957;29;20122;-87
2021/10/05 10:10:39;;;;;;;8.90;5.72;;;14.80;82.70;;;;;;4937933;29;20492;-85
2021/10/05 10:13:07;;;;;;;12.23;7.57;;;15.00;82.80;;;;;;4930891;29;20410;-86
2021/10/05 10:15:35;;;;;;;8.95;6.25;;;15.00;81.60;;;;;;4955226;28;20027;-86
2021/10/05 10:18:15;;;;;;;12.07;7.47;;;15.10;81.00;;;;;;4952316;29;20031;-86
2021/10/05 10:20:44;;;;;;;10.43;6.82;;;15.10;79.60;;;;;;4919467;29;20478;-87
2021/10/05 10:23:24;;;;;;;7.93;5.90;;;15.10;79.80;;;;;;4937251;29;20024;-87
2021/10/05 10:25:57;;;;;;;8.68;6.25;;;15.10;80.10;;;;;;4919914;29;20382;-86
2021/10/05 10:28:32;;;;;;;10.48;7.53;;;15.10;79.90;;;;;;4936056;29;20043;-87
2021/10/05 10:31:01;;;;;;;8.65;6.32;;;15.20;78.50;;;;;;4944427;29;20038;-86
2021/10/05 10:33:28;;;;;;;7.05;5.53;;;15.20;78.40;;;;;;4938169;29;20027;-86
2021/10/05 10:35:56;;;;;;;6.72;5.05;;;15.20;78.40;;;;;;4954382;29;20106;-86
2021/10/05 10:38:30;;;;;;;7.25;5.53;;;15.30;78.60;;;;;;4944285;29;20035;-86
2021/10/05 10:40:57;;;;;;;8.30;6.28;;;15.30;77.90;;;;;;4918587;29;20032;-86
2021/10/05 10:43:27;;;;;;;8.48;6.85;;;15.30;77.80;;;;;;4943142;29;20051;-86
2021/10/05 10:46:02;;;;;;;9.00;6.10;;;15.40;77.70;;;;;;4956294;29;20067;-86
2021/10/05 10:48:36;;;;;;;8.77;5.90;;;15.40;77.30;;;;;;4955218;29;20110;-86
2021/10/05 10:51:14;;;;;;;10.70;6.80;;;15.40;77.40;;;;;;4954925;28;20085;-87
2021/10/05 10:53:42;;;;;;;7.22;5.40;;;15.50;76.70;;;;;;4937516;29;20030;-86
2021/10/05 10:56:08;;;;;;;9.57;5.50;;;15.50;77.00;;;;;;4966045;28;20031;-85
2021/10/05 10:58:41;;;;;;;6.53;5.82;;;15.50;76.40;;;;;;4956437;28;20101;-86
2021/10/05 11:01:08;;;;;;;8.57;5.93;;;15.60;76.30;;;;;;4956559;28;20042;-85
2021/10/05 11:03:34;;;;;;;7.82;5.72;;;15.60;75.60;;;;;;4956921;28;20293;-85
2021/10/05 11:06:00;;;;;;;7.63;5.65;;;15.60;75.10;;;;;;4977069;28;20031;-86
2021/10/05 11:08:26;;;;;;;7.50;5.78;;;15.60;75.20;;;;;;4979085;28;20027;-87
2021/10/05 11:10:51;;;;;;;8.38;5.70;;;15.70;75.20;;;;;;4978324;28;20027;-87
2021/10/05 11:13:17;;;;;;;7.20;5.88;;;15.70;75.00;;;;;;4977904;28;20023;-86
2021/10/05 11:15:47;;;;;;;6.07;5.18;;;15.70;74.10;;;;;;4961343;28;20027;-85
2021/10/05 11:18:15;;;;;;;7.40;5.68;;;15.80;73.60;;;;;;4977642;28;20114;-86
2021/10/05 11:20:47;;;;;;;7.45;5.55;;;15.80;72.50;;;;;;4959885;28;20485;-85
2021/10/05 11:23:14;;;;;;;5.22;4.45;;;15.80;71.90;;;;;;4977794;28;20026;-85
2021/10/05 11:25:50;;;;;;;5.32;4.00;;;15.80;71.30;;;;;;4976882;28;20033;-85
2021/10/05 11:28:20;;;;;;;6.65;4.63;;;15.80;71.30;;;;;;4976798;28;20031;-85
2021/10/05 11:30:52;;;;;;;5.93;4.43;;;15.80;71.20;;;;;;4959518;28;20393;-85
2021/10/05 11:33:31;;;;;;;6.47;5.32;;;15.80;70.60;;;;;;4942687;29;20031;-85
2021/10/05 11:36:00;;;;;;;5.13;4.32;;;15.80;70.50;;;;;;4940835;29;20385;-85
2021/10/05 11:38:52;;;;;;;6.95;5.47;;;15.90;70.70;;;;;;4940984;29;20087;-85
2021/10/05 11:41:19;;;;;;;6.03;3.90;;;15.90;69.50;;;;;;4954211;28;20126;-85
2021/10/05 11:43:49;;;;;;;7.97;4.53;;;15.80;70.20;;;;;;4958054;28;20340;-85
2021/10/05 11:46:17;;;;;;;6.35;3.90;;;15.90;70.20;;;;;;4957840;28;20409;-85
2021/10/05 11:48:50;;;;;;;4.72;4.13;;;16.00;70.40;;;;;;4957649;29;20494;-85
2021/10/05 11:51:19;;;;;;;7.05;5.43;;;16.00;69.20;;;;;;4939837;29;20023;-85
2021/10/05 11:53:46;;;;;;;7.30;5.55;;;16.00;69.20;;;;;;4939980;29;20478;-85
2021/10/05 11:56:14;;;;;;;6.10;4.88;;;16.10;68.90;;;;;;4957993;29;20118;-85
2021/10/05 11:58:42;;;;;;;4.28;3.85;;;16.00;69.10;;;;;;4957551;29;20027;-85
2021/10/05 12:01:22;;;;;;;7.97;4.63;;;16.10;68.80;;;;;;4957774;29;20038;-85
2021/10/05 12:03:53;;;;;;;4.72;3.92;;;16.10;68.90;;;;;;4957177;28;20538;-85
2021/10/05 12:06:35;;;;;;;6.03;4.22;;;16.20;68.70;;;;;;4939637;28;20071;-85
2021/10/05 12:09:04;;;;;;;5.72;4.00;;;16.20;67.70;;;;;;4957606;29;20031;-85
2021/10/05 12:11:47;;;;;;;4.85;3.72;;;16.20;67.50;;;;;;4958161;29;20163;-85
2021/10/05 12:14:14;;;;;;;6.72;4.60;;;16.20;67.50;;;;;;4957783;28;20494;-86
2021/10/05 12:16:52;;;;;;;5.90;4.75;;;16.30;67.30;;;;;;4955795;28;20031;-85
2021/10/05 12:19:23;;;;;;;4.68;3.97;;;16.30;65.30;;;;;;4957155;29;20035;-85
2021/10/05 12:21:54;;;;;;;6.05;4.82;;;16.30;64.80;;;;;;4939706;29;20034;-85
2021/10/05 12:24:20;;;;;;;5.43;3.80;;;16.30;64.20;;;;;;4940261;29;20028;-86
2021/10/05 12:26:51;;;;;;;6.10;3.70;;;16.30;63.80;;;;;;4956784;29;20374;-86
2021/10/05 12:29:16;;;;;;;5.80;4.47;;;16.30;64.40;;;;;;4956487;28;20031;-86
2021/10/05 12:31:52;;;;;;;5.35;4.18;;;16.30;64.50;;;;;;4961044;28;20018;-86
2021/10/05 12:34:19;;;;;;;6.22;4.78;;;16.40;64.30;;;;;;4976546;28;20106;-86
2021/10/05 12:36:48;;;;;;;7.28;4.50;;;16.50;63.90;;;;;;4958503;28;20125;-86
2021/10/05 12:39:16;;;;;;;5.88;4.30;;;16.60;63.10;;;;;;4975673;28;20074;-85
2021/10/05 12:41:54;;;;;;;6.38;4.55;;;16.60;63.00;;;;;;4975421;28;20121;-86
2021/10/05 12:44:20;;;;;;;5.00;4.32;;;16.70;62.70;;;;;;4958650;28;20186;-86
2021/10/05 12:47:01;;;;;;;6.15;4.95;;;16.80;61.90;;;;;;4953939;28;20209;-86
2021/10/05 12:49:28;;;;;;;5.00;3.95;;;16.90;60.80;;;;;;4943544;29;20055;-86